sensor_id;sensor_type;location;lat;lon;timestamp;P1;durP1;ratioP1;P2;durP2;ratioP2
15183;SDS011;7693;49.266;7.104;2023-12-14T07:08:31;17.87;;;13.33;;
15183;SDS011;7693;49.266;7.104;2023-12-14T07:10:57;15.83;;;13.37;;
15183;SDS011;7693;49.266;7.104;2023-12-14T07:13:23;16.43;;;13.30;;
15183;SDS011;7693;49.266;7.104;2023-12-14T07:15:48;14.33;;;12.80;;
15183;SDS011;7693;49.266;7.104;2023-12-14T07:18:14;13.03;;;11.83;;
15183;SDS011;7693;49.266;7.104;2023-12-14T07:20:39;14.93;;;11.60;;
15183;SDS011;7693;49.266;7.104;2023-12-14T07:23:05;14.30;;;11.73;;
15183;SDS011;7693;49.266;7.104;2023-12-14T07:25:31;12.73;;;11.50;;
15183;SDS011;7693;49.266;7.104;2023-12-14T07:27:56;16.23;;;13.60;;
15183;SDS011;7693;49.266;7.104;2023-12-14T07:30:22;14.70;;;12.83;;
15183;SDS011;7693;49.266;7.104;2023-12-14T07:32:47;15.37;;;12.57;;
15183;SDS011;7693;49.266;7.104;2023-12-14T07:35:13;19.97;;;16.77;;
15183;SDS011;7693;49.266;7.104;2023-12-14T07:37:39;14.63;;;13.00;;
15183;SDS011;7693;49.266;7.104;2023-12-14T07:40:04;17.37;;;15.57;;
15183;SDS011;7693;49.266;7.104;2023-12-14T07:42:31;15.00;;;12.23;;
15183;SDS011;7693;49.266;7.104;2023-12-14T07:44:56;15.57;;;13.47;;
15183;SDS011;7693;49.266;7.104;2023-12-14T07:47:22;12.83;;;11.53;;
15183;SDS011;7693;49.266;7.104;2023-12-14T07:49:48;13.93;;;12.53;;
15183;SDS011;7693;49.266;7.104;2023-12-14T07:52:14;12.93;;;10.87;;
15183;SDS011;7693;49.266;7.104;2023-12-14T07:54:39;12.07;;;10.77;;
15183;SDS011;7693;49.266;7.104;2023-12-14T07:57:05;13.17;;;10.80;;
15183;SDS011;7693;49.266;7.104;2023-12-14T07:59:30;11.57;;;10.37;;
15183;SDS011;7693;49.266;7.104;2023-12-14T08:01:56;11.53;;;10.43;;
15183;SDS011;7693;49.266;7.104;2023-12-14T08:04:22;12.23;;;10.60;;
15183;SDS011;7693;49.266;7.104;2023-12-14T08:06:48;12.73;;;10.87;;
15183;SDS011;7693;49.266;7.104;2023-12-14T08:09:14;10.87;;;9.83;;
15183;SDS011;7693;49.266;7.104;2023-12-14T08:11:39;12.03;;;10.57;;
15183;SDS011;7693;49.266;7.104;2023-12-14T08:14:05;9.63;;;8.77;;
15183;SDS011;7693;49.266;7.104;2023-12-14T08:16:31;12.23;;;9.70;;
15183;SDS011;7693;49.266;7.104;2023-12-14T08:18:57;11.67;;;10.00;;
15183;SDS011;7693;49.266;7.104;2023-12-14T08:21:23;11.13;;;10.10;;
15183;SDS011;7693;49.266;7.104;2023-12-14T08:23:49;10.20;;;9.13;;
15183;SDS011;7693;49.266;7.104;2023-12-14T08:26:14;10.60;;;9.50;;
15183;SDS011;7693;49.266;7.104;2023-12-14T08:28:40;10.83;;;9.83;;
15183;SDS011;7693;49.266;7.104;2023-12-14T08:31:06;10.70;;;9.40;;
15183;SDS011;7693;49.266;7.104;2023-12-14T08:33:31;14.17;;;9.63;;
15183;SDS011;7693;49.266;7.104;2023-12-14T08:35:57;11.40;;;10.33;;
15183;SDS011;7693;49.266;7.104;2023-12-14T08:38:23;11.43;;;10.33;;
15183;SDS011;7693;49.266;7.104;2023-12-14T08:40:49;12.33;;;10.03;;
15183;SDS011;7693;49.266;7.104;2023-12-14T08:43:16;11.97;;;9.40;;
15183;SDS011;7693;49.266;7.104;2023-12-14T08:45:41;11.30;;;9.90;;
15183;SDS011;7693;49.266;7.104;2023-12-14T08:48:07;11.67;;;10.43;;
15183;SDS011;7693;49.266;7.104;2023-12-14T08:50:33;11.57;;;10.47;;
15183;SDS011;7693;49.266;7.104;2023-12-14T08:52:58;12.17;;;10.03;;
15183;SDS011;7693;49.266;7.104;2023-12-14T08:55:24;11.93;;;10.73;;
15183;SDS011;7693;49.266;7.104;2023-12-14T08:57:50;11.40;;;10.30;;
15183;SDS011;7693;49.266;7.104;2023-12-14T09:00:16;12.33;;;11.03;;
15183;SDS011;7693;49.266;7.104;2023-12-14T09:02:43;11.40;;;9.87;;
15183;SDS011;7693;49.266;7.104;2023-12-14T09:05:11;15.03;;;11.47;;
15183;SDS011;7693;49.266;7.104;2023-12-14T09:07:38;11.67;;;10.30;;
15183;SDS011;7693;49.266;7.104;2023-12-14T09:10:03;13.70;;;11.03;;
15183;SDS011;7693;49.266;7.104;2023-12-14T09:12:29;10.90;;;9.90;;
15183;SDS011;7693;49.266;7.104;2023-12-14T09:14:55;11.77;;;10.50;;
15183;SDS011;7693;49.266;7.104;2023-12-14T09:17:21;12.03;;;10.83;;
15183;SDS011;7693;49.266;7.104;2023-12-14T09:19:46;11.07;;;10.00;;
15183;SDS011;7693;49.266;7.104;2023-12-14T09:22:12;12.67;;;10.63;;
15183;SDS011;7693;49.266;7.104;2023-12-14T09:24:38;11.50;;;9.90;;
15183;SDS011;7693;49.266;7.104;2023-12-14T09:27:03;12.37;;;10.03;;
15183;SDS011;7693;49.266;7.104;2023-12-14T09:29:29;11.80;;;10.53;;
15183;SDS011;7693;49.266;7.104;2023-12-14T09:31:55;12.20;;;10.53;;
15183;SDS011;7693;49.266;7.104;2023-12-14T09:34:20;13.70;;;11.03;;
15183;SDS011;7693;49.266;7.104;2023-12-14T09:36:46;11.97;;;10.87;;
15183;SDS011;7693;49.266;7.104;2023-12-14T09:39:11;14.90;;;13.40;;
15183;SDS011;7693;49.266;7.104;2023-12-14T09:41:37;13.83;;;10.63;;
15183;SDS011;7693;49.266;7.104;2023-12-14T09:44:04;14.70;;;12.30;;
15183;SDS011;7693;49.266;7.104;2023-12-14T09:46:32;19.07;;;15.40;;
15183;SDS011;7693;49.266;7.104;2023-12-14T09:49:01;16.37;;;13.00;;
15183;SDS011;7693;49.266;7.104;2023-12-14T09:51:27;14.73;;;12.17;;
15183;SDS011;7693;49.266;7.104;2023-12-14T09:53:53;11.47;;;9.73;;
15183;SDS011;7693;49.266;7.104;2023-12-14T09:56:24;10.93;;;9.80;;
15183;SDS011;7693;49.266;7.104;2023-12-14T09:58:50;13.73;;;12.40;;
15183;SDS011;7693;49.266;7.104;2023-12-14T10:01:25;11.07;;;10.03;;
15183;SDS011;7693;49.266;7.104;2023-12-14T10:04:11;12.03;;;9.70;;
15183;SDS011;7693;49.266;7.104;2023-12-14T10:06:38;10.70;;;9.60;;
15183;SDS011;7693;49.266;7.104;2023-12-14T10:09:05;12.87;;;11.57;;
15183;SDS011;7693;49.266;7.104;2023-12-14T10:11:40;11.60;;;10.47;;
15183;SDS011;7693;49.266;7.104;2023-12-14T10:14:23;10.60;;;9.63;;
15183;SDS011;7693;49.266;7.104;2023-12-14T10:16:50;12.53;;;11.23;;
15183;SDS011;7693;49.266;7.104;2023-12-14T10:19:17;14.97;;;13.10;;
15183;SDS011;7693;49.266;7.104;2023-12-14T10:21:43;12.73;;;11.53;;
15183;SDS011;7693;49.266;7.104;2023-12-14T10:24:11;10.57;;;9.47;;
15183;SDS011;7693;49.266;7.104;2023-12-14T10:26:38;11.27;;;10.03;;
15183;SDS011;7693;49.266;7.104;2023-12-14T10:29:03;17.57;;;9.87;;
15183;SDS011;7693;49.266;7.104;2023-12-14T10:31:30;10.77;;;9.13;;
15183;SDS011;7693;49.266;7.104;2023-12-14T10:33:56;12.50;;;8.80;;
15183;SDS011;7693;49.266;7.104;2023-12-14T10:36:24;9.80;;;9.00;;
15183;SDS011;7693;49.266;7.104;2023-12-14T10:38:54;11.13;;;9.83;;
15183;SDS011;7693;49.266;7.104;2023-12-14T10:41:23;10.07;;;9.17;;
15183;SDS011;7693;49.266;7.104;2023-12-14T10:43:53;11.07;;;9.83;;
15183;SDS011;7693;49.266;7.104;2023-12-14T10:46:20;10.50;;;9.37;;
15183;SDS011;7693;49.266;7.104;2023-12-14T10:48:52;9.57;;;8.67;;
15183;SDS011;7693;49.266;7.104;2023-12-14T10:51:18;9.07;;;8.23;;
15183;SDS011;7693;49.266;7.104;2023-12-14T10:53:47;9.77;;;8.97;;
15183;SDS011;7693;49.266;7.104;2023-12-14T10:56:14;9.53;;;8.73;;
15183;SDS011;7693;49.266;7.104;2023-12-14T13:13:57;3.50;;;3.40;;
15183;SDS011;7693;49.266;7.104;2023-12-14T13:16:23;8.63;;;6.10;;
15183;SDS011;7693;49.266;7.104;2023-12-14T13:18:48;4.23;;;4.03;;
15183;SDS011;7693;49.266;7.104;2023-12-14T13:21:14;3.87;;;3.67;;
15183;SDS011;7693;49.266;7.104;2023-12-14T13:23:40;3.70;;;3.40;;
15183;SDS011;7693;49.266;7.104;2023-12-14T13:26:06;3.20;;;3.10;;
15183;SDS011;7693;49.266;7.104;2023-12-14T13:28:31;3.80;;;3.50;;
15183;SDS011;7693;49.266;7.104;2023-12-14T13:30:57;4.90;;;4.60;;
15183;SDS011;7693;49.266;7.104;2023-12-14T13:33:22;5.50;;;4.03;;
15183;SDS011;7693;49.266;7.104;2023-12-14T13:35:48;5.13;;;3.90;;
15183;SDS011;7693;49.266;7.104;2023-12-14T13:38:14;4.20;;;3.90;;
15183;SDS011;7693;49.266;7.104;2023-12-14T13:40:39;4.50;;;4.20;;
15183;SDS011;7693;49.266;7.104;2023-12-14T13:43:05;3.93;;;3.70;;
15183;SDS011;7693;49.266;7.104;2023-12-14T13:45:35;4.40;;;4.03;;
15183;SDS011;7693;49.266;7.104;2023-12-14T13:48:04;4.53;;;4.13;;
15183;SDS011;7693;49.266;7.104;2023-12-14T13:50:29;4.03;;;3.83;;
15183;SDS011;7693;49.266;7.104;2023-12-14T13:52:55;4.63;;;4.23;;
15183;SDS011;7693;49.266;7.104;2023-12-14T13:55:21;4.67;;;4.37;;
15183;SDS011;7693;49.266;7.104;2023-12-14T13:57:47;4.07;;;3.77;;
15183;SDS011;7693;49.266;7.104;2023-12-14T14:00:13;3.63;;;3.43;;
15183;SDS011;7693;49.266;7.104;2023-12-14T14:02:41;3.77;;;3.53;;
15183;SDS011;7693;49.266;7.104;2023-12-14T14:05:06;3.60;;;3.40;;
15183;SDS011;7693;49.266;7.104;2023-12-14T14:07:32;3.23;;;3.03;;
15183;SDS011;7693;49.266;7.104;2023-12-14T14:09:58;3.80;;;3.60;;
15183;SDS011;7693;49.266;7.104;2023-12-14T14:12:23;3.67;;;3.47;;
15183;SDS011;7693;49.266;7.104;2023-12-14T14:14:49;3.03;;;2.90;;
15183;SDS011;7693;49.266;7.104;2023-12-14T14:17:14;3.10;;;2.90;;
15183;SDS011;7693;49.266;7.104;2023-12-14T14:19:40;2.73;;;2.60;;
15183;SDS011;7693;49.266;7.104;2023-12-14T14:22:05;2.97;;;2.87;;
15183;SDS011;7693;49.266;7.104;2023-12-14T14:24:31;2.93;;;2.73;;
15183;SDS011;7693;49.266;7.104;2023-12-14T14:26:57;2.60;;;2.50;;
15183;SDS011;7693;49.266;7.104;2023-12-14T14:29:22;2.60;;;2.50;;
15183;SDS011;7693;49.266;7.104;2023-12-14T14:31:48;3.03;;;2.93;;
15183;SDS011;7693;49.266;7.104;2023-12-14T14:34:14;2.90;;;2.80;;
15183;SDS011;7693;49.266;7.104;2023-12-14T14:36:40;3.30;;;3.00;;
15183;SDS011;7693;49.266;7.104;2023-12-14T14:39:05;3.40;;;3.20;;
15183;SDS011;7693;49.266;7.104;2023-12-14T14:41:31;3.90;;;3.60;;
15183;SDS011;7693;49.266;7.104;2023-12-14T14:43:56;3.17;;;3.07;;
15183;SDS011;7693;49.266;7.104;2023-12-14T14:46:22;3.73;;;3.47;;
15183;SDS011;7693;49.266;7.104;2023-12-14T14:48:48;3.60;;;3.50;;
15183;SDS011;7693;49.266;7.104;2023-12-14T14:51:13;4.13;;;3.93;;
15183;SDS011;7693;49.266;7.104;2023-12-14T14:53:39;4.07;;;3.60;;
15183;SDS011;7693;49.266;7.104;2023-12-14T14:56:08;3.87;;;3.67;;
15183;SDS011;7693;49.266;7.104;2023-12-14T14:58:34;3.87;;;3.67;;
15183;SDS011;7693;49.266;7.104;2023-12-14T15:01:00;3.87;;;3.67;;
15183;SDS011;7693;49.266;7.104;2023-12-14T15:03:26;3.87;;;3.67;;
15183;SDS011;7693;49.266;7.104;2023-12-14T15:05:51;3.93;;;3.70;;
15183;SDS011;7693;49.266;7.104;2023-12-14T15:08:17;3.80;;;3.60;;
15183;SDS011;7693;49.266;7.104;2023-12-14T15:10:42;3.63;;;3.43;;
15183;SDS011;7693;49.266;7.104;2023-12-14T15:13:08;3.70;;;3.60;;
15183;SDS011;7693;49.266;7.104;2023-12-14T15:15:33;3.80;;;3.70;;
15183;SDS011;7693;49.266;7.104;2023-12-14T15:18:01;4.67;;;4.37;;
15183;SDS011;7693;49.266;7.104;2023-12-14T15:20:26;4.20;;;4.00;;
15183;SDS011;7693;49.266;7.104;2023-12-14T15:22:52;3.90;;;3.70;;
15183;SDS011;7693;49.266;7.104;2023-12-14T15:25:18;3.90;;;3.70;;
15183;SDS011;7693;49.266;7.104;2023-12-14T15:27:44;3.20;;;3.00;;
15183;SDS011;7693;49.266;7.104;2023-12-14T15:30:09;5.40;;;3.70;;
15183;SDS011;7693;49.266;7.104;2023-12-14T15:32:36;3.20;;;3.10;;
15183;SDS011;7693;49.266;7.104;2023-12-14T15:35:02;3.70;;;3.50;;
15183;SDS011;7693;49.266;7.104;2023-12-14T15:37:28;3.50;;;3.30;;
15183;SDS011;7693;49.266;7.104;2023-12-14T15:39:54;3.17;;;3.07;;
15183;SDS011;7693;49.266;7.104;2023-12-14T15:42:19;5.00;;;4.70;;
15183;SDS011;7693;49.266;7.104;2023-12-14T15:44:45;3.80;;;3.60;;
15183;SDS011;7693;49.266;7.104;2023-12-14T15:47:11;2.87;;;2.77;;
15183;SDS011;7693;49.266;7.104;2023-12-14T15:49:38;2.73;;;2.63;;
15183;SDS011;7693;49.266;7.104;2023-12-14T15:52:03;3.57;;;3.27;;
15183;SDS011;7693;49.266;7.104;2023-12-14T15:54:29;2.77;;;2.67;;
15183;SDS011;7693;49.266;7.104;2023-12-14T15:56:55;3.20;;;3.10;;
15183;SDS011;7693;49.266;7.104;2023-12-14T15:59:21;2.80;;;2.60;;
15183;SDS011;7693;49.266;7.104;2023-12-14T16:01:46;3.10;;;3.00;;
15183;SDS011;7693;49.266;7.104;2023-12-14T16:04:12;2.60;;;2.50;;
15183;SDS011;7693;49.266;7.104;2023-12-14T16:06:38;2.90;;;2.80;;
15183;SDS011;7693;49.266;7.104;2023-12-14T16:09:04;2.40;;;2.40;;
15183;SDS011;7693;49.266;7.104;2023-12-14T16:11:29;3.03;;;2.93;;
15183;SDS011;7693;49.266;7.104;2023-12-14T16:13:55;2.60;;;2.50;;
15183;SDS011;7693;49.266;7.104;2023-12-14T16:16:22;3.10;;;3.00;;
15183;SDS011;7693;49.266;7.104;2023-12-14T16:18:48;2.93;;;2.83;;
15183;SDS011;7693;49.266;7.104;2023-12-14T16:21:14;2.90;;;2.80;;
15183;SDS011;7693;49.266;7.104;2023-12-14T16:23:39;3.20;;;3.10;;
15183;SDS011;7693;49.266;7.104;2023-12-14T16:26:05;2.80;;;2.70;;
15183;SDS011;7693;49.266;7.104;2023-12-14T16:28:32;2.90;;;2.80;;
15183;SDS011;7693;49.266;7.104;2023-12-14T16:31:02;2.77;;;2.67;;
15183;SDS011;7693;49.266;7.104;2023-12-14T16:33:32;3.03;;;2.83;;
15183;SDS011;7693;49.266;7.104;2023-12-14T16:35:58;2.83;;;2.73;;
15183;SDS011;7693;49.266;7.104;2023-12-14T16:38:24;3.90;;;3.63;;
15183;SDS011;7693;49.266;7.104;2023-12-14T16:40:49;3.27;;;3.07;;
15183;SDS011;7693;49.266;7.104;2023-12-14T16:43:15;3.43;;;3.23;;
15183;SDS011;7693;49.266;7.104;2023-12-14T16:45:47;3.50;;;3.20;;
15183;SDS011;7693;49.266;7.104;2023-12-14T16:48:18;3.23;;;3.10;;
15183;SDS011;7693;49.266;7.104;2023-12-14T16:50:44;3.20;;;3.10;;
15183;SDS011;7693;49.266;7.104;2023-12-14T16:53:11;3.40;;;3.10;;
15183;SDS011;7693;49.266;7.104;2023-12-14T16:55:36;3.33;;;3.23;;
15183;SDS011;7693;49.266;7.104;2023-12-14T16:58:02;3.60;;;3.50;;
15183;SDS011;7693;49.266;7.104;2023-12-14T17:00:28;4.03;;;3.83;;
15183;SDS011;7693;49.266;7.104;2023-12-14T17:02:53;4.00;;;3.80;;
15183;SDS011;7693;49.266;7.104;2023-12-14T17:05:19;5.17;;;4.77;;
15183;SDS011;7693;49.266;7.104;2023-12-14T17:07:44;10.80;;;8.20;;
15183;SDS011;7693;49.266;7.104;2023-12-14T17:10:10;7.43;;;6.73;;
15183;SDS011;7693;49.266;7.104;2023-12-14T17:12:35;7.33;;;6.70;;
15183;SDS011;7693;49.266;7.104;2023-12-14T17:15:01;5.03;;;4.63;;
15183;SDS011;7693;49.266;7.104;2023-12-14T17:17:27;4.00;;;3.80;;
15183;SDS011;7693;49.266;7.104;2023-12-14T17:19:58;5.30;;;4.20;;
15183;SDS011;7693;49.266;7.104;2023-12-14T17:22:24;4.80;;;4.60;;
15183;SDS011;7693;49.266;7.104;2023-12-14T17:24:50;4.80;;;4.00;;
15183;SDS011;7693;49.266;7.104;2023-12-14T17:27:15;4.03;;;3.83;;
15183;SDS011;7693;49.266;7.104;2023-12-14T17:29:41;4.77;;;3.90;;
15183;SDS011;7693;49.266;7.104;2023-12-14T17:32:07;4.17;;;3.93;;
15183;SDS011;7693;49.266;7.104;2023-12-14T17:34:34;4.03;;;3.83;;
15183;SDS011;7693;49.266;7.104;2023-12-14T17:37:00;4.50;;;4.20;;
15183;SDS011;7693;49.266;7.104;2023-12-14T17:39:25;4.30;;;4.10;;
15183;SDS011;7693;49.266;7.104;2023-12-14T17:41:51;4.00;;;3.80;;
15183;SDS011;7693;49.266;7.104;2023-12-14T17:44:18;4.20;;;3.97;;
15183;SDS011;7693;49.266;7.104;2023-12-14T17:46:44;4.40;;;4.20;;
15183;SDS011;7693;49.266;7.104;2023-12-14T17:49:09;4.53;;;4.23;;
15183;SDS011;7693;49.266;7.104;2023-12-14T17:51:39;4.10;;;3.90;;
15183;SDS011;7693;49.266;7.104;2023-12-14T17:54:08;4.37;;;4.17;;
15183;SDS011;7693;49.266;7.104;2023-12-14T17:56:34;4.23;;;3.97;;
15183;SDS011;7693;49.266;7.104;2023-12-14T17:58:59;4.70;;;4.40;;
15183;SDS011;7693;49.266;7.104;2023-12-14T18:01:25;4.73;;;4.43;;
15183;SDS011;7693;49.266;7.104;2023-12-14T18:03:51;4.47;;;4.17;;
15183;SDS011;7693;49.266;7.104;2023-12-14T18:06:16;4.90;;;4.50;;
15183;SDS011;7693;49.266;7.104;2023-12-14T18:08:42;4.80;;;4.40;;
15183;SDS011;7693;49.266;7.104;2023-12-14T18:11:08;4.80;;;4.27;;
15183;SDS011;7693;49.266;7.104;2023-12-14T18:13:34;4.40;;;4.20;;
15183;SDS011;7693;49.266;7.104;2023-12-14T18:15:59;4.53;;;4.23;;
15183;SDS011;7693;49.266;7.104;2023-12-14T18:18:26;4.17;;;3.97;;
15183;SDS011;7693;49.266;7.104;2023-12-14T18:20:52;4.13;;;3.90;;
15183;SDS011;7693;49.266;7.104;2023-12-14T18:23:18;4.37;;;4.07;;
15183;SDS011;7693;49.266;7.104;2023-12-14T18:25:43;5.10;;;4.80;;
15183;SDS011;7693;49.266;7.104;2023-12-14T18:28:11;4.70;;;4.40;;
15183;SDS011;7693;49.266;7.104;2023-12-14T18:30:37;4.80;;;4.47;;
15183;SDS011;7693;49.266;7.104;2023-12-14T18:33:04;5.40;;;5.10;;
15183;SDS011;7693;49.266;7.104;2023-12-14T18:35:29;4.93;;;4.63;;
15183;SDS011;7693;49.266;7.104;2023-12-14T18:37:55;4.87;;;4.50;;
15183;SDS011;7693;49.266;7.104;2023-12-14T18:40:23;5.77;;;4.80;;
15183;SDS011;7693;49.266;7.104;2023-12-14T18:42:50;6.03;;;5.57;;
15183;SDS011;7693;49.266;7.104;2023-12-14T18:45:17;5.93;;;5.53;;
15183;SDS011;7693;49.266;7.104;2023-12-14T18:47:42;5.00;;;4.60;;
15183;SDS011;7693;49.266;7.104;2023-12-14T18:50:08;8.50;;;7.70;;
15183;SDS011;7693;49.266;7.104;2023-12-14T18:52:34;8.50;;;6.53;;
15183;SDS011;7693;49.266;7.104;2023-12-14T18:54:59;6.93;;;6.30;;
15183;SDS011;7693;49.266;7.104;2023-12-14T18:57:25;5.43;;;5.03;;
15183;SDS011;7693;49.266;7.104;2023-12-14T18:59:51;8.27;;;7.57;;
15183;SDS011;7693;49.266;7.104;2023-12-14T19:02:16;7.83;;;7.13;;
15183;SDS011;7693;49.266;7.104;2023-12-14T19:04:42;6.43;;;5.93;;
15183;SDS011;7693;49.266;7.104;2023-12-14T19:07:08;7.40;;;6.77;;
15183;SDS011;7693;49.266;7.104;2023-12-14T19:09:33;6.50;;;5.87;;
15183;SDS011;7693;49.266;7.104;2023-12-14T19:11:59;7.50;;;6.90;;
15183;SDS011;7693;49.266;7.104;2023-12-14T19:14:24;7.47;;;6.50;;
15183;SDS011;7693;49.266;7.104;2023-12-14T19:16:50;7.27;;;6.57;;
15183;SDS011;7693;49.266;7.104;2023-12-14T19:19:16;6.80;;;6.30;;
15183;SDS011;7693;49.266;7.104;2023-12-14T19:21:42;6.63;;;6.03;;
15183;SDS011;7693;49.266;7.104;2023-12-14T19:24:11;7.93;;;6.57;;
15183;SDS011;7693;49.266;7.104;2023-12-14T19:26:37;9.93;;;8.93;;
15183;SDS011;7693;49.266;7.104;2023-12-14T19:29:02;10.47;;;9.20;;
15183;SDS011;7693;49.266;7.104;2023-12-14T19:31:28;8.80;;;6.33;;
15183;SDS011;7693;49.266;7.104;2023-12-14T19:33:54;7.00;;;5.90;;
15183;SDS011;7693;49.266;7.104;2023-12-14T19:36:20;6.70;;;6.20;;
15183;SDS011;7693;49.266;7.104;2023-12-14T19:38:46;12.40;;;10.70;;
15183;SDS011;7693;49.266;7.104;2023-12-14T19:41:18;10.37;;;9.37;;
15183;SDS011;7693;49.266;7.104;2023-12-14T19:43:44;9.87;;;8.97;;
15183;SDS011;7693;49.266;7.104;2023-12-14T19:46:11;9.70;;;8.80;;
15183;SDS011;7693;49.266;7.104;2023-12-14T19:48:41;8.13;;;6.40;;
15183;SDS011;7693;49.266;7.104;2023-12-14T19:51:07;6.20;;;5.60;;
15183;SDS011;7693;49.266;7.104;2023-12-14T19:53:33;5.30;;;4.90;;
15183;SDS011;7693;49.266;7.104;2023-12-14T19:55:58;5.93;;;5.40;;
15183;SDS011;7693;49.266;7.104;2023-12-14T19:58:24;7.10;;;6.50;;
15183;SDS011;7693;49.266;7.104;2023-12-14T20:00:50;13.87;;;12.40;;
15183;SDS011;7693;49.266;7.104;2023-12-14T20:03:15;7.63;;;6.93;;
15183;SDS011;7693;49.266;7.104;2023-12-14T20:05:42;6.47;;;6.00;;
15183;SDS011;7693;49.266;7.104;2023-12-14T20:08:13;5.93;;;5.40;;
15183;SDS011;7693;49.266;7.104;2023-12-14T20:10:46;5.80;;;5.40;;
15183;SDS011;7693;49.266;7.104;2023-12-14T20:13:13;5.73;;;5.27;;
15183;SDS011;7693;49.266;7.104;2023-12-14T20:15:39;5.90;;;5.33;;
15183;SDS011;7693;49.266;7.104;2023-12-14T20:18:06;5.87;;;5.37;;
15183;SDS011;7693;49.266;7.104;2023-12-14T20:20:32;5.30;;;5.00;;
15183;SDS011;7693;49.266;7.104;2023-12-14T20:22:58;5.67;;;5.23;;
15183;SDS011;7693;49.266;7.104;2023-12-14T20:25:24;5.80;;;5.40;;
15183;SDS011;7693;49.266;7.104;2023-12-14T20:27:50;5.80;;;5.40;;
15183;SDS011;7693;49.266;7.104;2023-12-14T20:30:17;5.37;;;4.93;;
15183;SDS011;7693;49.266;7.104;2023-12-14T20:32:43;6.80;;;5.97;;
15183;SDS011;7693;49.266;7.104;2023-12-14T20:35:09;5.67;;;5.17;;
15183;SDS011;7693;49.266;7.104;2023-12-14T20:37:34;6.33;;;5.73;;
15183;SDS011;7693;49.266;7.104;2023-12-14T20:40:05;7.40;;;5.27;;
15183;SDS011;7693;49.266;7.104;2023-12-14T20:42:39;5.63;;;5.23;;
15183;SDS011;7693;49.266;7.104;2023-12-14T20:45:05;6.10;;;5.20;;
15183;SDS011;7693;49.266;7.104;2023-12-14T20:47:31;5.77;;;5.27;;
15183;SDS011;7693;49.266;7.104;2023-12-14T20:49:56;6.47;;;5.97;;
15183;SDS011;7693;49.266;7.104;2023-12-14T20:52:22;5.73;;;5.23;;
15183;SDS011;7693;49.266;7.104;2023-12-14T20:54:48;6.17;;;5.23;;
15183;SDS011;7693;49.266;7.104;2023-12-14T20:57:13;6.40;;;5.77;;
15183;SDS011;7693;49.266;7.104;2023-12-14T20:59:39;6.23;;;5.67;;
15183;SDS011;7693;49.266;7.104;2023-12-14T21:02:04;6.43;;;5.40;;
15183;SDS011;7693;49.266;7.104;2023-12-14T21:04:31;5.87;;;5.47;;
15183;SDS011;7693;49.266;7.104;2023-12-14T21:06:57;6.10;;;5.50;;
15183;SDS011;7693;49.266;7.104;2023-12-14T21:09:22;8.73;;;6.80;;
15183;SDS011;7693;49.266;7.104;2023-12-14T21:11:48;6.77;;;6.10;;
15183;SDS011;7693;49.266;7.104;2023-12-14T21:14:14;6.73;;;6.03;;
15183;SDS011;7693;49.266;7.104;2023-12-14T21:16:41;13.20;;;10.33;;
15183;SDS011;7693;49.266;7.104;2023-12-14T21:19:07;7.50;;;6.77;;
15183;SDS011;7693;49.266;7.104;2023-12-14T21:21:33;8.10;;;7.30;;
15183;SDS011;7693;49.266;7.104;2023-12-14T21:23:59;6.27;;;5.77;;
15183;SDS011;7693;49.266;7.104;2023-12-14T21:26:24;5.90;;;5.50;;
15183;SDS011;7693;49.266;7.104;2023-12-14T21:28:50;5.63;;;5.33;;
15183;SDS011;7693;49.266;7.104;2023-12-14T21:31:19;5.73;;;5.37;;
15183;SDS011;7693;49.266;7.104;2023-12-14T21:33:44;5.77;;;5.33;;
15183;SDS011;7693;49.266;7.104;2023-12-14T21:36:10;5.20;;;4.90;;
15183;SDS011;7693;49.266;7.104;2023-12-14T21:38:35;5.83;;;5.33;;
15183;SDS011;7693;49.266;7.104;2023-12-14T21:41:01;5.37;;;5.00;;
15183;SDS011;7693;49.266;7.104;2023-12-14T21:43:27;5.73;;;5.33;;
15183;SDS011;7693;49.266;7.104;2023-12-14T21:45:52;5.50;;;5.20;;
15183;SDS011;7693;49.266;7.104;2023-12-14T21:48:19;5.07;;;4.60;;
15183;SDS011;7693;49.266;7.104;2023-12-14T21:50:45;5.90;;;5.30;;
15183;SDS011;7693;49.266;7.104;2023-12-14T21:53:10;5.60;;;5.20;;
15183;SDS011;7693;49.266;7.104;2023-12-14T21:55:36;4.77;;;4.47;;
15183;SDS011;7693;49.266;7.104;2023-12-14T21:58:01;5.23;;;4.73;;
15183;SDS011;7693;49.266;7.104;2023-12-14T22:00:27;4.87;;;4.57;;
15183;SDS011;7693;49.266;7.104;2023-12-14T22:02:53;4.90;;;4.50;;
15183;SDS011;7693;49.266;7.104;2023-12-14T22:05:19;5.03;;;4.70;;
15183;SDS011;7693;49.266;7.104;2023-12-14T22:07:44;5.80;;;4.70;;
15183;SDS011;7693;49.266;7.104;2023-12-14T22:10:10;4.83;;;4.43;;
15183;SDS011;7693;49.266;7.104;2023-12-14T22:12:41;7.70;;;4.20;;
15183;SDS011;7693;49.266;7.104;2023-12-14T22:15:10;7.73;;;4.30;;
15183;SDS011;7693;49.266;7.104;2023-12-14T22:17:36;4.47;;;4.17;;
15183;SDS011;7693;49.266;7.104;2023-12-14T22:20:02;4.33;;;3.97;;
15183;SDS011;7693;49.266;7.104;2023-12-14T22:22:28;5.10;;;4.30;;
15183;SDS011;7693;49.266;7.104;2023-12-14T22:24:54;4.30;;;4.10;;
15183;SDS011;7693;49.266;7.104;2023-12-14T22:27:19;5.40;;;4.90;;
15183;SDS011;7693;49.266;7.104;2023-12-14T22:29:45;5.30;;;4.80;;
15183;SDS011;7693;49.266;7.104;2023-12-14T22:32:11;5.10;;;4.70;;
15183;SDS011;7693;49.266;7.104;2023-12-14T22:34:36;5.50;;;5.00;;
15183;SDS011;7693;49.266;7.104;2023-12-14T22:37:02;4.83;;;4.53;;
15183;SDS011;7693;49.266;7.104;2023-12-14T22:39:28;5.30;;;4.60;;
15183;SDS011;7693;49.266;7.104;2023-12-14T22:41:53;6.93;;;4.63;;
15183;SDS011;7693;49.266;7.104;2023-12-14T22:44:19;5.60;;;4.37;;
15183;SDS011;7693;49.266;7.104;2023-12-14T22:46:44;6.47;;;4.60;;
15183;SDS011;7693;49.266;7.104;2023-12-14T22:49:10;5.03;;;4.30;;
15183;SDS011;7693;49.266;7.104;2023-12-14T22:51:36;5.00;;;4.57;;
15183;SDS011;7693;49.266;7.104;2023-12-14T22:54:02;5.27;;;4.87;;
15183;SDS011;7693;49.266;7.104;2023-12-14T22:56:28;4.93;;;4.50;;
15183;SDS011;7693;49.266;7.104;2023-12-14T22:58:54;6.03;;;5.00;;
15183;SDS011;7693;49.266;7.104;2023-12-14T23:03:55;5.07;;;4.77;;
15183;SDS011;7693;49.266;7.104;2023-12-14T23:06:21;7.07;;;4.80;;
15183;SDS011;7693;49.266;7.104;2023-12-14T23:08:47;6.50;;;4.40;;
15183;SDS011;7693;49.266;7.104;2023-12-14T23:11:13;6.10;;;5.10;;
15183;SDS011;7693;49.266;7.104;2023-12-14T23:13:38;5.87;;;5.10;;
15183;SDS011;7693;49.266;7.104;2023-12-14T23:16:04;5.83;;;5.23;;
15183;SDS011;7693;49.266;7.104;2023-12-14T23:18:30;5.50;;;5.10;;
15183;SDS011;7693;49.266;7.104;2023-12-14T23:20:55;5.47;;;5.07;;
15183;SDS011;7693;49.266;7.104;2023-12-14T23:23:21;5.53;;;5.03;;
15183;SDS011;7693;49.266;7.104;2023-12-14T23:25:46;6.20;;;5.37;;
15183;SDS011;7693;49.266;7.104;2023-12-14T23:28:12;5.30;;;4.90;;
15183;SDS011;7693;49.266;7.104;2023-12-14T23:30:38;4.93;;;4.53;;
15183;SDS011;7693;49.266;7.104;2023-12-14T23:33:04;9.77;;;5.30;;
15183;SDS011;7693;49.266;7.104;2023-12-14T23:35:29;5.80;;;5.30;;
15183;SDS011;7693;49.266;7.104;2023-12-14T23:37:55;5.10;;;4.60;;
15183;SDS011;7693;49.266;7.104;2023-12-14T23:40:21;5.27;;;4.77;;
15183;SDS011;7693;49.266;7.104;2023-12-14T23:42:47;5.63;;;4.60;;
15183;SDS011;7693;49.266;7.104;2023-12-14T23:45:13;5.60;;;5.00;;
15183;SDS011;7693;49.266;7.104;2023-12-14T23:47:38;6.10;;;4.77;;
15183;SDS011;7693;49.266;7.104;2023-12-14T23:50:05;7.17;;;5.70;;
15183;SDS011;7693;49.266;7.104;2023-12-14T23:52:31;6.93;;;6.30;;
15183;SDS011;7693;49.266;7.104;2023-12-14T23:54:56;7.23;;;6.63;;
15183;SDS011;7693;49.266;7.104;2023-12-14T23:57:22;6.93;;;6.23;;
15183;SDS011;7693;49.266;7.104;2023-12-14T23:59:48;5.90;;;5.40;;
